Aviation Digital Data Service (ADDS)

Output produced by TAFs form (2339 UTC 19 October 2017)
found at http://www.aviationweather.gov/adds/tafs/
 
KERI 192251Z 26008KT 10SM CLR 17/14 A3012 RMK AO2 SLP198 T01720139
KERI 192335Z 2000/2024 28006KT P6SM SCT250 
     FM201000 20004KT P6SM SKC 
     FM201700 25006KT P6SM SKC
       
KFKL 192256Z AUTO 24006KT 10SM FEW050 18/09 A3014 RMK AO2 SLP209 T01780089
KFKL 192320Z 2000/2024 24005KT P6SM SCT250 AMD LTD TO CLD VIS AND WIND
       
KYNG 192251Z 22007KT 10SM FEW050 SCT250 18/09 A3013 RMK AO2 SLP202 T01830089
KYNG 192335Z 2000/2024 25005KT P6SM SCT250 
     FM200800 VRB03KT P6SM SKC
       
KBVI 192347Z 23007KT 10SM CLR 18/08 A3015
KBVI 192320Z 2000/2024 24005KT P6SM SCT250 AMD NOT SKED 2002/2012
       
KAGC 192253Z 22007KT 10SM CLR 18/06 A3016 RMK AO2 SLP217 T01830056
KAGC 192320Z 2000/2024 24005KT P6SM SCT250
       
KPIT 192251Z 23006KT 10SM BKN250 19/08 A3016 RMK AO2 SLP222 T01890078
KPIT 192320Z 2000/2106 24005KT P6SM SCT250
       
KBTP 192256Z AUTO 22005KT 10SM CLR 18/08 A3016 RMK AO2 SLPNO T01780083